createdAt,value
2024-04-23T00:01:18.235Z,11.82
2024-04-23T00:03:45.306Z,11.81
2024-04-23T00:06:12.625Z,11.80
2024-04-23T00:08:39.784Z,11.80
2024-04-23T00:11:07.103Z,11.80
2024-04-23T00:13:34.296Z,11.76
2024-04-23T00:16:01.632Z,11.76
2024-04-23T00:18:28.731Z,11.72
2024-04-23T00:20:57.177Z,11.68
2024-04-23T00:23:24.440Z,11.63
2024-04-23T00:25:51.645Z,11.66
2024-04-23T00:28:18.855Z,11.69
2024-04-23T00:30:45.878Z,11.72
2024-04-23T00:33:12.961Z,11.75
2024-04-23T00:35:40.063Z,11.81
2024-04-23T00:38:07.165Z,11.78
2024-04-23T00:40:34.233Z,11.79
2024-04-23T00:43:01.267Z,11.75
2024-04-23T00:45:34.712Z,11.68
2024-04-23T00:48:02.507Z,11.62
2024-04-23T00:50:30.789Z,11.60
2024-04-23T00:52:58.169Z,11.62
2024-04-23T00:55:25.875Z,11.61
2024-04-23T00:57:53.267Z,11.60
2024-04-23T01:00:20.635Z,11.67
2024-04-23T01:02:47.703Z,11.73
2024-04-23T01:05:14.815Z,11.78
2024-04-23T01:07:41.887Z,11.80
2024-04-23T01:10:09.142Z,11.81
2024-04-23T01:12:36.488Z,11.83
2024-04-23T01:15:04.316Z,11.83
2024-04-23T01:17:32.094Z,11.79
2024-04-23T01:20:02.887Z,11.77
2024-04-23T01:22:45.028Z,11.72
2024-04-23T01:25:15.490Z,11.67
2024-04-23T01:27:44.494Z,11.68
2024-04-23T01:30:12.825Z,11.67
2024-04-23T01:32:42.031Z,11.67
2024-04-23T01:35:10.824Z,11.67
2024-04-23T01:37:42.023Z,11.67
2024-04-23T01:40:10.903Z,11.63
2024-04-23T01:42:39.087Z,11.66
2024-04-23T01:45:07.750Z,11.68
2024-04-23T01:47:34.916Z,11.69
2024-04-23T01:50:03.278Z,11.72
2024-04-23T01:52:30.439Z,11.73
2024-04-23T01:54:57.540Z,11.77
2024-04-23T01:57:24.790Z,11.82
2024-04-23T01:59:58.268Z,11.88
2024-04-23T02:02:26.424Z,11.90
2024-04-23T02:04:53.993Z,11.96
2024-04-23T02:07:21.225Z,11.95
2024-04-23T02:09:49.400Z,11.91
2024-04-23T02:12:17.019Z,11.92
2024-04-23T02:14:44.119Z,11.93
2024-04-23T02:17:11.520Z,11.95
2024-04-23T02:19:38.679Z,11.99
2024-04-23T02:22:05.776Z,12.04
2024-04-23T02:24:32.943Z,12.06
2024-04-23T02:27:00.021Z,12.06
2024-04-23T02:29:27.178Z,12.11
2024-04-23T02:31:54.433Z,12.12
2024-04-23T02:34:21.523Z,12.16
2024-04-23T02:36:48.588Z,12.18
2024-04-23T02:39:15.762Z,12.19
2024-04-23T02:41:51.256Z,12.22
2024-04-23T02:44:19.051Z,12.22
2024-04-23T02:46:46.585Z,12.27
2024-04-23T02:49:13.790Z,12.32
2024-04-23T02:51:51.116Z,12.32
2024-04-23T02:54:18.294Z,12.26
2024-04-23T02:56:48.491Z,12.25
2024-04-23T02:59:16.616Z,12.22
2024-04-23T03:01:43.999Z,12.23
2024-04-23T03:04:11.181Z,12.22
2024-04-23T03:06:38.280Z,12.18
2024-04-23T03:09:05.352Z,12.19
2024-04-23T03:11:32.520Z,12.19
2024-04-23T03:13:59.682Z,12.22
2024-04-23T03:16:26.958Z,12.27
2024-04-23T03:18:53.990Z,12.32
2024-04-23T03:21:21.006Z,12.35
2024-04-23T03:23:48.007Z,12.38
2024-04-23T03:26:15.054Z,12.40
2024-04-23T03:28:42.101Z,12.43
2024-04-23T03:31:09.243Z,12.47
2024-04-23T03:33:36.282Z,12.46
2024-04-23T03:36:03.352Z,12.50
2024-04-23T03:38:30.380Z,12.48
2024-04-23T03:40:57.632Z,12.50
2024-04-23T03:43:24.838Z,12.53
2024-04-23T03:45:51.939Z,12.58
2024-04-23T03:48:19.250Z,12.63
2024-04-23T03:50:46.397Z,12.67
2024-04-23T03:53:13.906Z,12.67
2024-04-23T03:55:41.212Z,12.62
2024-04-23T03:58:08.550Z,12.67
2024-04-23T04:00:35.721Z,12.69
2024-04-23T04:03:21.234Z,12.70
2024-04-23T04:06:08.233Z,12.73
2024-04-23T04:08:36.694Z,12.74
2024-04-23T04:11:04.200Z,12.75
2024-04-23T04:13:32.085Z,12.74
2024-04-23T04:15:59.200Z,12.78
2024-04-23T04:18:26.237Z,12.75
2024-04-23T04:20:53.356Z,12.73
2024-04-23T04:23:20.481Z,12.67
2024-04-23T04:25:47.562Z,12.67
2024-04-23T04:28:14.775Z,12.67
2024-04-23T04:30:42.115Z,12.69
2024-04-23T04:33:09.467Z,12.64
2024-04-23T04:35:36.614Z,12.65
2024-04-23T04:38:03.774Z,12.66
2024-04-23T04:40:31.337Z,12.67
2024-04-23T04:43:01.141Z,12.67
2024-04-23T04:45:28.662Z,12.66
2024-04-23T04:47:56.044Z,12.70
2024-04-23T04:50:24.031Z,12.76
2024-04-23T04:52:51.205Z,12.80
2024-04-23T04:55:18.377Z,12.82
2024-04-23T04:57:45.623Z,12.82
2024-04-23T05:00:13.631Z,12.82
2024-04-23T05:02:40.754Z,12.79
2024-04-23T05:05:09.987Z,12.78
2024-04-23T05:07:37.257Z,12.77
2024-04-23T05:10:04.894Z,12.73
2024-04-23T05:12:32.013Z,12.71
2024-04-23T05:14:59.118Z,12.66
2024-04-23T05:17:26.255Z,12.70
2024-04-23T05:19:53.423Z,12.71
2024-04-23T05:22:23.567Z,12.78
2024-04-23T05:24:53.700Z,12.77
2024-04-23T05:27:21.378Z,12.80
2024-04-23T05:29:55.059Z,12.78
2024-04-23T05:32:43.498Z,12.78
2024-04-23T05:35:17.752Z,12.80
2024-04-23T05:37:44.896Z,12.81
2024-04-23T05:40:12.567Z,12.84
2024-04-23T05:42:39.671Z,12.82
2024-04-23T05:45:07.162Z,12.77
2024-04-23T05:48:11.635Z,12.79
2024-04-23T05:51:36.995Z,12.69
2024-04-23T05:55:00.357Z,12.67
2024-04-23T05:57:46.433Z,12.66
2024-04-23T06:00:15.090Z,12.72
2024-04-23T06:02:42.578Z,12.70
2024-04-23T06:05:09.652Z,12.63
2024-04-23T06:07:38.620Z,12.58
2024-04-23T06:10:07.491Z,12.49
2024-04-23T06:12:34.595Z,12.55
2024-04-23T06:15:01.715Z,12.57
2024-04-23T06:17:35.976Z,12.56
2024-04-23T06:20:09.907Z,12.48
2024-04-23T06:22:40.220Z,12.44
2024-04-23T06:25:09.068Z,12.36
2024-04-23T06:27:40.683Z,12.34
2024-04-23T06:30:17.530Z,12.37
2024-04-23T06:32:44.989Z,12.30
2024-04-23T06:35:14.749Z,12.26
2024-04-23T06:37:41.963Z,12.18
2024-04-23T06:40:10.973Z,12.13
2024-04-23T06:42:39.693Z,12.05
2024-04-23T06:45:07.472Z,12.07
2024-04-23T06:47:35.442Z,12.08
2024-04-23T06:50:04.205Z,12.10
2024-04-23T06:52:31.560Z,12.13
2024-04-23T06:54:59.650Z,12.16
2024-04-23T06:57:27.568Z,12.21
2024-04-23T06:59:54.730Z,12.27
2024-04-23T07:02:21.996Z,12.29
2024-04-23T07:04:49.499Z,12.30
2024-04-23T07:07:16.544Z,12.35
2024-04-23T07:09:43.620Z,12.36
2024-04-23T07:12:10.760Z,12.38
2024-04-23T07:14:38.040Z,12.42
2024-04-23T07:17:05.243Z,12.46
2024-04-23T07:19:32.331Z,12.49
2024-04-23T07:22:01.606Z,12.62
2024-04-23T07:24:28.973Z,12.71
2024-04-23T07:26:56.077Z,12.78
2024-04-23T07:29:23.176Z,12.85
2024-04-23T07:31:50.376Z,12.90
2024-04-23T07:34:17.520Z,12.97
2024-04-23T07:36:46.630Z,13.08
2024-04-23T07:39:15.127Z,13.03
2024-04-23T07:41:42.638Z,12.99
2024-04-23T07:44:10.151Z,12.91
2024-04-23T07:46:37.702Z,12.94
2024-04-23T07:49:04.855Z,13.06
2024-04-23T07:51:33.997Z,13.08
2024-04-23T07:54:01.296Z,13.13
2024-04-23T07:56:28.788Z,13.14
2024-04-23T07:58:55.908Z,13.11
2024-04-23T08:01:23.075Z,13.08
2024-04-23T08:03:50.186Z,13.11
2024-04-23T08:06:17.283Z,13.11
2024-04-23T08:08:47.710Z,13.08
2024-04-23T08:11:15.339Z,13.06
2024-04-23T08:13:42.508Z,13.08
2024-04-23T08:16:09.616Z,13.08
2024-04-23T08:18:36.847Z,13.04
2024-04-23T08:21:07.228Z,13.03
2024-04-23T08:23:34.880Z,13.01
2024-04-23T08:26:10.308Z,12.93
2024-04-23T08:28:37.923Z,12.92
2024-04-23T08:31:05.401Z,12.84
2024-04-23T08:33:33.432Z,12.81
2024-04-23T08:36:00.510Z,12.80
2024-04-23T08:38:28.306Z,12.76
2024-04-23T08:40:56.542Z,12.74
2024-04-23T08:43:44.992Z,12.74
2024-04-23T08:46:12.022Z,12.78
2024-04-23T08:48:43.022Z,12.75
2024-04-23T08:51:10.795Z,12.82
2024-04-23T08:53:42.375Z,12.84
2024-04-23T08:56:17.607Z,12.90
2024-04-23T08:58:44.894Z,12.94
2024-04-23T09:01:22.196Z,12.93
2024-04-23T09:03:52.944Z,12.90
2024-04-23T09:06:20.643Z,12.89
2024-04-23T09:08:48.086Z,12.92
2024-04-23T09:11:16.074Z,12.98
2024-04-23T09:13:43.388Z,13.04
2024-04-23T09:16:11.230Z,13.14
2024-04-23T09:18:38.511Z,13.20
2024-04-23T09:21:06.185Z,13.18
2024-04-23T09:23:33.692Z,13.14
2024-04-23T09:26:02.463Z,13.16
2024-04-23T09:28:35.713Z,13.16
2024-04-23T09:31:04.048Z,13.13
2024-04-23T09:33:33.741Z,13.12
2024-04-23T09:36:10.588Z,13.09
2024-04-23T09:38:39.582Z,13.15
2024-04-23T09:41:08.051Z,13.18
2024-04-23T09:43:37.047Z,13.20
2024-04-23T09:46:09.925Z,13.18
2024-04-23T09:48:40.171Z,13.16
2024-04-23T09:51:08.716Z,13.18
2024-04-23T09:53:37.926Z,13.27
2024-04-23T09:56:07.058Z,13.28
2024-04-23T09:58:35.770Z,13.29
2024-04-23T10:01:03.833Z,13.21
2024-04-23T10:03:31.810Z,13.23
2024-04-23T10:06:04.040Z,13.19
2024-04-23T10:08:40.129Z,13.15
2024-04-23T10:11:10.247Z,13.12
2024-04-23T10:13:44.760Z,13.10
2024-04-23T10:16:27.220Z,13.13
2024-04-23T10:19:01.118Z,13.16
2024-04-23T10:21:31.163Z,13.15
2024-04-23T10:24:08.921Z,13.18
2024-04-23T10:26:46.497Z,13.21
2024-04-23T10:29:17.227Z,13.19
2024-04-23T10:31:45.070Z,13.24
2024-04-23T10:34:17.192Z,13.28
2024-04-23T10:36:51.186Z,13.28
2024-04-23T10:39:23.359Z,13.31
2024-04-23T10:41:55.540Z,13.32
2024-04-23T10:44:24.188Z,13.28
2024-04-23T10:46:51.399Z,13.34
2024-04-23T10:49:26.299Z,13.30
2024-04-23T10:51:56.365Z,13.26
2024-04-23T10:54:24.297Z,13.25
2024-04-23T10:57:02.849Z,13.21
2024-04-23T10:59:33.816Z,13.09
2024-04-23T11:02:02.601Z,13.08
2024-04-23T11:04:36.854Z,13.07
2024-04-23T11:07:11.506Z,13.06
2024-04-23T11:09:43.878Z,12.99
2024-04-23T11:12:19.882Z,12.96
2024-04-23T11:14:48.118Z,12.94
2024-04-23T11:17:16.051Z,12.91
2024-04-23T11:19:53.166Z,12.95
2024-04-23T11:22:39.379Z,12.95
2024-04-23T11:25:08.070Z,12.99
2024-04-23T11:27:35.792Z,13.06
2024-04-23T11:30:03.062Z,13.15
2024-04-23T11:32:31.299Z,13.10
2024-04-23T11:34:58.749Z,13.04
2024-04-23T11:37:28.044Z,13.07
2024-04-23T11:39:57.240Z,13.06
2024-04-23T11:42:26.661Z,13.08
2024-04-23T11:44:57.851Z,13.11
2024-04-23T11:47:29.406Z,13.07
2024-04-23T11:49:57.763Z,13.07
2024-04-23T11:52:25.141Z,13.12
2024-04-23T11:54:55.516Z,13.00
2024-04-23T11:57:22.794Z,12.87
2024-04-23T11:59:53.403Z,12.77
2024-04-23T12:02:20.475Z,12.77
2024-04-23T12:04:48.650Z,12.81
2024-04-23T12:07:16.508Z,12.85
2024-04-23T12:09:43.598Z,12.90
2024-04-23T12:12:10.784Z,12.94
2024-04-23T12:14:40.613Z,12.98
2024-04-23T12:17:08.199Z,13.01
2024-04-23T12:19:38.206Z,12.96
2024-04-23T12:22:25.719Z,13.00
2024-04-23T12:24:52.842Z,13.04
2024-04-23T12:27:22.536Z,13.05
2024-04-23T12:29:49.651Z,12.97
2024-04-23T12:32:24.680Z,12.95
2024-04-23T12:34:56.740Z,12.98
2024-04-23T12:37:24.007Z,13.03
2024-04-23T12:39:53.681Z,13.01
2024-04-23T12:42:26.340Z,12.98
2024-04-23T12:44:54.138Z,13.00
2024-04-23T12:47:22.311Z,12.97
2024-04-23T12:49:50.015Z,12.94
2024-04-23T12:52:17.230Z,12.95
2024-04-23T12:54:44.560Z,12.94
2024-04-23T12:57:12.756Z,12.94
2024-04-23T12:59:39.897Z,12.97
2024-04-23T13:02:10.061Z,12.97
2024-04-23T13:04:37.794Z,12.96
2024-04-23T13:07:05.249Z,12.87
2024-04-23T13:09:32.328Z,12.85
2024-04-23T13:12:03.804Z,12.82
2024-04-23T13:14:31.040Z,12.78
2024-04-23T13:16:58.194Z,12.76
2024-04-23T13:19:26.822Z,12.76
2024-04-23T13:21:53.983Z,12.73
2024-04-23T13:24:21.276Z,12.73
2024-04-23T13:26:48.441Z,12.78
2024-04-23T13:29:15.807Z,12.76
2024-04-23T13:31:43.025Z,12.81
2024-04-23T13:34:10.501Z,12.82
2024-04-23T13:36:37.697Z,12.82
2024-04-23T13:39:04.726Z,12.75
2024-04-23T13:41:31.761Z,12.76
2024-04-23T13:43:58.852Z,12.73
2024-04-23T13:46:25.895Z,12.69
2024-04-23T13:48:52.985Z,12.70
2024-04-23T13:51:20.139Z,12.68
2024-04-23T13:53:47.655Z,12.66
2024-04-23T13:56:14.786Z,12.68
2024-04-23T13:58:42.053Z,12.69
2024-04-23T14:01:10.013Z,12.73
2024-04-23T14:03:38.361Z,12.72
2024-04-23T14:10:18.981Z,12.62
2024-04-23T14:12:47.474Z,12.61
2024-04-23T14:15:17.692Z,12.62
2024-04-23T14:17:46.447Z,12.59
2024-04-23T14:20:13.863Z,12.57
2024-04-23T14:22:40.973Z,12.52
2024-04-23T14:25:10.810Z,12.48
2024-04-23T14:27:37.885Z,12.45
2024-04-23T14:30:05.375Z,12.39
2024-04-23T14:32:33.979Z,12.35
2024-04-23T14:35:09.058Z,12.35
2024-04-23T14:37:38.888Z,12.22
2024-04-23T14:40:07.835Z,12.20
2024-04-23T14:42:34.939Z,12.20
2024-04-23T14:45:02.768Z,12.27
2024-04-23T14:47:30.573Z,12.34
2024-04-23T14:49:57.763Z,12.37
2024-04-23T14:52:24.836Z,12.38
2024-04-23T14:54:53.143Z,12.38
2024-04-23T14:57:24.204Z,12.38
2024-04-23T14:59:53.740Z,12.41
2024-04-23T15:02:22.554Z,12.38
2024-04-23T15:04:49.763Z,12.33
2024-04-23T15:07:17.151Z,12.31
2024-04-23T15:09:44.216Z,12.31
2024-04-23T15:12:11.285Z,12.25
2024-04-23T15:14:38.850Z,12.29
2024-04-23T15:17:06.055Z,12.33
2024-04-23T15:19:33.172Z,12.28
2024-04-23T15:22:00.215Z,12.31
2024-04-23T15:24:27.426Z,12.33
2024-04-23T15:26:56.933Z,12.28
2024-04-23T15:29:24.012Z,12.24
2024-04-23T15:31:51.518Z,12.23
2024-04-23T15:34:18.618Z,12.26
2024-04-23T15:36:45.936Z,12.31
2024-04-23T15:39:13.063Z,12.30
2024-04-23T15:41:40.283Z,12.32
2024-04-23T15:44:07.792Z,12.30
2024-04-23T15:46:34.880Z,12.32
2024-04-23T15:49:02.148Z,12.35
2024-04-23T15:51:32.220Z,12.36
2024-04-23T15:53:59.391Z,12.36
2024-04-23T15:56:26.454Z,12.34
2024-04-23T15:58:54.131Z,12.34
2024-04-23T16:01:21.250Z,12.34
2024-04-23T16:03:48.368Z,12.30
2024-04-23T16:06:17.440Z,12.32
2024-04-23T16:08:44.680Z,12.35
2024-04-23T16:11:12.423Z,12.37
2024-04-23T16:13:39.777Z,12.36
2024-04-23T16:16:07.001Z,12.38
2024-04-23T16:18:37.021Z,12.38
2024-04-23T16:21:07.884Z,12.33
2024-04-23T16:23:36.395Z,12.35
2024-04-23T16:26:07.439Z,12.27
2024-04-23T16:28:37.942Z,12.28
2024-04-23T16:31:06.444Z,12.31
2024-04-23T16:33:34.786Z,12.31
2024-04-23T16:36:02.941Z,12.26
2024-04-23T16:38:30.729Z,12.26
2024-04-23T16:41:02.460Z,12.25
2024-04-23T16:43:30.371Z,12.27
2024-04-23T16:46:07.519Z,12.20
2024-04-23T16:48:35.975Z,12.16
2024-04-23T16:51:03.502Z,12.17
2024-04-23T16:53:30.772Z,12.12
2024-04-23T16:55:58.445Z,12.08
2024-04-23T16:58:25.983Z,12.07
2024-04-23T17:00:53.206Z,12.01
2024-04-23T17:03:20.374Z,11.97
2024-04-23T17:05:47.655Z,11.98
2024-04-23T17:08:14.872Z,11.97
2024-04-23T17:10:46.352Z,11.98
2024-04-23T17:13:14.725Z,12.01
2024-04-23T17:15:44.051Z,12.04
2024-04-23T17:18:11.411Z,12.07
2024-04-23T17:20:38.662Z,12.04
2024-04-23T17:23:05.927Z,12.06
2024-04-23T17:25:37.441Z,12.06
2024-04-23T17:28:05.356Z,12.04
2024-04-23T17:30:32.713Z,12.05
2024-04-23T17:32:59.923Z,12.04
2024-04-23T17:35:27.476Z,12.11
2024-04-23T17:37:54.862Z,12.10
2024-04-23T17:40:22.150Z,12.13
2024-04-23T17:42:52.005Z,12.10
2024-04-23T17:45:19.239Z,12.09
2024-04-23T17:47:46.790Z,12.10
2024-04-23T17:50:14.742Z,12.07
2024-04-23T17:52:42.112Z,12.04
2024-04-23T17:55:09.542Z,12.04
2024-04-23T17:57:39.729Z,12.01
2024-04-23T18:00:09.535Z,12.06
2024-04-23T18:02:40.026Z,12.10
2024-04-23T18:05:10.953Z,12.14
2024-04-23T18:07:38.715Z,12.16
2024-04-23T18:10:09.610Z,12.14
2024-04-23T18:12:38.153Z,12.14
2024-04-23T18:15:10.359Z,12.12
2024-04-23T18:17:38.102Z,12.14
2024-04-23T18:20:06.020Z,12.17
2024-04-23T18:22:33.497Z,12.14
2024-04-23T18:25:03.167Z,12.17
2024-04-23T18:27:30.467Z,12.22
2024-04-23T18:29:57.875Z,12.20
2024-04-23T18:32:27.181Z,12.22
2024-04-23T18:34:57.194Z,12.25
2024-04-23T18:37:24.590Z,12.28
2024-04-23T18:39:51.876Z,12.33
2024-04-23T18:42:21.196Z,12.38
2024-04-23T18:44:51.485Z,12.39
2024-04-23T18:47:19.167Z,12.41
2024-04-23T18:49:49.648Z,12.45
2024-04-23T18:52:17.056Z,12.44
2024-04-23T18:54:44.947Z,12.38
2024-04-23T18:57:19.674Z,12.33
2024-04-23T18:59:47.235Z,12.38
2024-04-23T19:02:15.501Z,12.42
2024-04-23T19:04:42.984Z,12.39
2024-04-23T19:07:11.167Z,12.43
2024-04-23T19:09:38.566Z,12.40
2024-04-23T19:12:05.955Z,12.44
2024-04-23T19:14:33.391Z,12.46
2024-04-23T19:17:03.714Z,12.49
2024-04-23T19:19:31.102Z,12.48
2024-04-23T19:22:00.525Z,12.50
2024-04-23T19:24:28.046Z,12.49
2024-04-23T19:26:59.016Z,12.51
2024-04-23T19:29:28.659Z,12.51
2024-04-23T19:31:56.238Z,12.47
2024-04-23T19:34:26.605Z,12.42
2024-04-23T19:36:56.629Z,12.46
2024-04-23T19:39:26.666Z,12.43
2024-04-23T19:41:57.283Z,12.39
2024-04-23T19:44:24.738Z,12.40
2024-04-23T19:46:54.772Z,12.37
2024-04-23T19:49:22.241Z,12.35
2024-04-23T19:51:49.571Z,12.35
2024-04-23T19:54:21.011Z,12.34
2024-04-23T19:56:56.745Z,12.36
2024-04-23T19:59:28.217Z,12.34
2024-04-23T20:04:40.321Z,12.34
2024-04-23T20:07:07.620Z,12.37
2024-04-23T20:09:42.539Z,12.38
2024-04-23T20:12:13.233Z,12.38
2024-04-23T20:14:43.423Z,12.37
2024-04-23T20:17:11.784Z,12.36
2024-04-23T20:19:38.986Z,12.33
2024-04-23T20:22:08.573Z,12.32
2024-04-23T20:24:35.996Z,12.30
2024-04-23T20:27:03.068Z,12.29
2024-04-23T20:29:30.099Z,12.30
2024-04-23T20:31:57.221Z,12.25
2024-04-23T20:34:24.276Z,12.32
2024-04-23T20:36:51.329Z,12.31
2024-04-23T20:39:18.542Z,12.28
2024-04-23T20:41:45.635Z,12.31
2024-04-23T20:44:12.770Z,12.34
2024-04-23T20:46:39.872Z,12.38
2024-04-23T20:49:07.843Z,12.37
2024-04-23T20:51:34.940Z,12.37
2024-04-23T20:54:02.020Z,12.41
2024-04-23T20:56:29.086Z,12.42
2024-04-23T20:58:56.244Z,12.42
2024-04-23T21:01:23.354Z,12.47
2024-04-23T21:03:50.420Z,12.50
2024-04-23T21:06:17.545Z,12.54
